Terminal Aerodrome Forecast
Issued by NWS

Home | Current Version | Previous Version | Text Only | Print | Product List | Glossary Off
Versions: 1 2 3 4 5 6 7 8 9 10 11 12 13 14 15

000
FTUS43 KMPX 211300 AAA
TAFAXN
TAF AMD
KAXN 211343Z 2114/2212 32018G25KT P6SM SCT020
      TEMPO 2115/2117 BKN020
     FM220100 34010KT P6SM SKC
     FM220600 36004KT P6SM BKN200=

USA.gov is the U.S. government's official web portal to all federal, state and local government web resources and services.